Time;durP1;ratioP1;P1;durP2;ratioP2;P2;SDS_P1;SDS_P2;PMS_P1;PMS_P2;Temp;Humidity;BMP_temperature;BMP_pressure;BME280_temperature;BME280_humidity;BME280_pressure;Samples;Min_cycle;Max_cycle;Signal;HPM_P1;HPM_P2
2023/04/22 00:00:38;;;;;;;2.83;2.30;;;13.80;65.80;;;;;;5019801;28;20068;-80
2023/04/22 00:03:04;;;;;;;2.80;2.20;;;13.80;65.80;;;;;;5020242;28;20056;-81
2023/04/22 00:05:30;;;;;;;3.25;2.60;;;13.70;65.80;;;;;;5020898;28;20113;-81
2023/04/22 00:07:56;;;;;;;2.97;2.47;;;13.70;65.90;;;;;;5020935;28;20029;-81
2023/04/22 00:10:21;;;;;;;3.40;2.40;;;13.70;65.90;;;;;;5054834;28;20052;-81
2023/04/22 00:12:47;;;;;;;3.10;2.40;;;13.60;65.90;;;;;;5020454;28;20043;-81
2023/04/22 00:15:13;;;;;;;2.63;2.20;;;13.60;65.90;;;;;;5003857;28;20032;-81
2023/04/22 00:17:39;;;;;;;3.47;2.42;;;13.60;66.00;;;;;;5036280;28;20017;-82
2023/04/22 00:20:10;;;;;;;2.75;2.08;;;13.50;66.00;;;;;;5019971;28;20057;-82
2023/04/22 00:22:35;;;;;;;3.03;2.40;;;13.50;66.10;;;;;;5003891;28;20059;-81
2023/04/22 00:25:01;;;;;;;2.53;2.15;;;13.50;66.10;;;;;;5004360;28;20048;-82
2023/04/22 00:27:27;;;;;;;3.80;2.55;;;13.50;66.20;;;;;;5019651;28;20388;-81
2023/04/22 00:29:53;;;;;;;2.53;2.05;;;13.40;66.10;;;;;;5036620;28;20032;-81
2023/04/22 00:32:21;;;;;;;2.70;2.10;;;13.40;66.10;;;;;;5036450;28;20060;-80
2023/04/22 00:34:48;;;;;;;2.72;2.13;;;13.40;66.20;;;;;;5036877;28;20053;-80
2023/04/22 00:37:14;;;;;;;2.88;2.28;;;13.40;66.20;;;;;;5036660;28;20461;-81
2023/04/22 00:39:40;;;;;;;3.13;2.38;;;13.40;66.20;;;;;;5003363;28;20053;-82
2023/04/22 00:42:06;;;;;;;2.15;1.95;;;13.30;66.20;;;;;;5019424;28;20068;-80
2023/04/22 00:44:35;;;;;;;2.92;2.40;;;13.30;66.90;;;;;;5035701;28;20415;-82
2023/04/22 00:47:02;;;;;;;2.88;2.40;;;13.30;66.20;;;;;;5035851;28;20040;-80
2023/04/22 00:49:28;;;;;;;3.50;2.35;;;13.30;66.20;;;;;;5032098;28;20228;-83
2023/04/22 00:51:54;;;;;;;3.13;2.33;;;13.30;66.20;;;;;;5032397;28;20057;-82
2023/04/22 00:54:19;;;;;;;3.40;2.40;;;13.20;66.20;;;;;;5032317;28;20061;-83
2023/04/22 00:56:45;;;;;;;3.35;2.60;;;13.20;66.30;;;;;;5032803;28;20544;-83
2023/04/22 00:59:12;;;;;;;3.47;2.50;;;13.20;66.30;;;;;;5016111;28;20032;-81
2023/04/22 01:01:38;;;;;;;3.58;2.25;;;13.20;66.30;;;;;;5015992;28;20034;-82
2023/04/22 01:04:04;;;;;;;3.17;2.58;;;13.20;66.40;;;;;;5015950;28;20033;-80
2023/04/22 01:06:32;;;;;;;3.55;2.40;;;13.10;66.40;;;;;;5015932;28;20556;-80
2023/04/22 01:08:58;;;;;;;2.50;2.30;;;13.10;66.40;;;;;;5015608;28;20026;-80
2023/04/22 01:11:24;;;;;;;2.90;2.30;;;13.00;66.40;;;;;;5015836;28;20036;-81
2023/04/22 01:13:51;;;;;;;3.35;2.40;;;13.00;66.40;;;;;;5015751;28;20033;-81
2023/04/22 01:16:17;;;;;;;3.10;2.42;;;13.00;66.40;;;;;;5032117;28;20537;-81
2023/04/22 01:18:43;;;;;;;3.20;2.33;;;13.00;66.50;;;;;;5015759;28;20476;-80
2023/04/22 01:21:10;;;;;;;2.83;2.30;;;12.90;66.40;;;;;;5016026;28;20087;-80
2023/04/22 01:23:37;;;;;;;3.08;2.42;;;13.00;66.50;;;;;;5032510;28;20043;-81
2023/04/22 01:26:03;;;;;;;3.95;2.67;;;12.90;66.50;;;;;;5000163;28;20048;-81
2023/04/22 01:28:30;;;;;;;2.80;2.40;;;12.90;66.50;;;;;;5031930;28;20126;-81
2023/04/22 01:30:56;;;;;;;3.30;2.53;;;12.80;66.50;;;;;;5016480;28;20121;-80
2023/04/22 01:33:22;;;;;;;3.20;2.50;;;12.80;66.60;;;;;;5015483;28;20065;-80
2023/04/22 01:35:48;;;;;;;3.35;2.30;;;12.80;66.60;;;;;;4998938;28;20060;-82
2023/04/22 01:38:14;;;;;;;2.42;2.13;;;12.80;66.70;;;;;;5032279;28;20060;-80
2023/04/22 01:40:39;;;;;;;2.92;2.33;;;12.70;66.60;;;;;;5015695;28;20026;-80
2023/04/22 01:43:06;;;;;;;3.13;2.40;;;12.70;66.70;;;;;;5032142;28;20088;-80
2023/04/22 01:45:32;;;;;;;2.47;2.08;;;12.70;66.80;;;;;;5015357;28;20045;-81
2023/04/22 01:47:58;;;;;;;3.45;2.63;;;12.60;66.80;;;;;;5034950;28;20083;-80
2023/04/22 01:50:24;;;;;;;3.67;2.67;;;12.60;66.80;;;;;;5002322;28;20083;-82
2023/04/22 01:52:50;;;;;;;3.10;2.35;;;12.50;66.80;;;;;;5021378;28;20474;-80
2023/04/22 01:55:15;;;;;;;2.75;2.22;;;12.50;66.90;;;;;;5022955;28;20040;-82
2023/04/22 01:57:43;;;;;;;2.65;2.10;;;12.50;66.90;;;;;;5023470;28;20057;-80
2023/04/22 02:00:09;;;;;;;3.15;2.50;;;12.40;66.90;;;;;;5026326;28;20089;-82
2023/04/22 02:02:45;;;;;;;2.70;2.22;;;12.40;67.00;;;;;;5029942;28;20024;-81
2023/04/22 02:05:11;;;;;;;2.80;2.47;;;12.40;67.00;;;;;;5028984;28;20029;-81
2023/04/22 02:07:37;;;;;;;3.63;2.70;;;12.30;67.00;;;;;;5048555;28;20044;-85
2023/04/22 02:10:04;;;;;;;2.25;2.05;;;12.30;67.00;;;;;;5076207;28;20036;-91
2023/04/22 02:12:31;;;;;;;3.30;2.40;;;12.30;67.10;;;;;;5058223;28;20021;-81
2023/04/22 02:14:57;;;;;;;3.83;2.33;;;12.30;67.20;;;;;;5025335;28;20025;-83
2023/04/22 02:17:24;;;;;;;3.13;2.45;;;12.20;67.20;;;;;;5039500;28;20079;-79
2023/04/22 02:19:50;;;;;;;2.80;2.30;;;12.30;67.20;;;;;;5038748;28;20041;-79
2023/04/22 02:22:16;;;;;;;3.17;2.42;;;12.20;67.30;;;;;;5021873;28;20560;-79
2023/04/22 02:24:42;;;;;;;2.88;2.15;;;12.20;67.30;;;;;;5038525;28;20037;-80
2023/04/22 02:27:08;;;;;;;3.08;2.40;;;12.20;67.30;;;;;;5006378;28;20033;-79
2023/04/22 02:29:34;;;;;;;3.22;2.50;;;12.10;67.30;;;;;;5021717;28;20424;-82
2023/04/22 02:32:00;;;;;;;3.22;2.22;;;12.10;67.30;;;;;;5038538;28;20079;-80
2023/04/22 02:34:27;;;;;;;3.33;2.63;;;12.10;67.40;;;;;;5021792;28;20025;-79
2023/04/22 02:36:53;;;;;;;3.65;2.60;;;12.10;67.40;;;;;;5022338;28;20120;-81
2023/04/22 02:39:19;;;;;;;3.10;2.50;;;12.10;67.40;;;;;;5038064;28;20475;-80
2023/04/22 02:41:48;;;;;;;3.17;2.72;;;12.00;67.40;;;;;;5021670;28;20021;-80
2023/04/22 02:44:14;;;;;;;3.53;2.53;;;12.00;67.50;;;;;;5021515;28;20033;-80
2023/04/22 02:46:40;;;;;;;3.13;2.50;;;12.00;67.50;;;;;;5005210;28;20083;-80
2023/04/22 02:49:06;;;;;;;3.63;2.60;;;11.90;67.50;;;;;;5001577;28;20053;-85
2023/04/22 02:51:32;;;;;;;3.65;2.80;;;11.90;67.50;;;;;;5001632;28;20532;-79
2023/04/22 02:53:59;;;;;;;2.92;2.38;;;11.90;67.50;;;;;;5018030;28;20048;-79
2023/04/22 02:56:25;;;;;;;3.55;2.85;;;11.90;67.60;;;;;;5001660;28;20045;-79
2023/04/22 02:58:51;;;;;;;3.55;2.90;;;11.90;67.60;;;;;;5017968;28;20489;-80
2023/04/22 03:01:16;;;;;;;3.75;2.78;;;11.80;67.60;;;;;;5018457;28;20049;-79
2023/04/22 03:03:42;;;;;;;3.50;2.85;;;11.80;67.60;;;;;;5017133;28;20037;-80
2023/04/22 03:06:11;;;;;;;4.45;3.05;;;11.80;67.60;;;;;;5034124;28;20061;-80
2023/04/22 03:08:37;;;;;;;4.53;3.03;;;11.80;67.60;;;;;;5001266;28;20036;-85
2023/04/22 03:11:04;;;;;;;3.55;2.65;;;11.80;67.70;;;;;;5034408;28;20537;-82
2023/04/22 03:13:29;;;;;;;3.90;3.22;;;11.70;67.60;;;;;;5034905;28;20542;-81
2023/04/22 03:15:55;;;;;;;4.10;3.17;;;11.80;67.70;;;;;;5017343;28;20025;-81
2023/04/22 03:18:21;;;;;;;4.63;3.08;;;11.70;67.70;;;;;;5017596;28;20083;-80
2023/04/22 03:20:48;;;;;;;4.05;3.30;;;11.70;67.70;;;;;;5033440;28;20025;-79
2023/04/22 03:23:14;;;;;;;4.28;3.17;;;11.70;67.70;;;;;;5017426;28;20128;-79
2023/04/22 03:25:40;;;;;;;3.95;3.13;;;11.70;67.80;;;;;;5033797;28;20454;-80
2023/04/22 03:28:06;;;;;;;3.90;3.00;;;11.70;67.80;;;;;;5017528;28;20030;-81
2023/04/22 03:30:32;;;;;;;4.35;3.10;;;11.70;67.80;;;;;;5017422;28;20379;-79
2023/04/22 03:32:57;;;;;;;4.88;3.45;;;11.70;67.80;;;;;;5034462;28;20029;-79
2023/04/22 03:35:30;;;;;;;3.72;2.90;;;11.70;67.80;;;;;;5018384;28;20059;-80
2023/04/22 03:37:59;;;;;;;4.32;3.35;;;11.70;67.80;;;;;;5033835;28;20386;-80
2023/04/22 03:40:31;;;;;;;4.13;3.20;;;11.70;67.80;;;;;;5034415;28;20029;-80
2023/04/22 03:42:58;;;;;;;4.22;3.20;;;11.70;67.80;;;;;;5033415;28;20079;-80
2023/04/22 03:45:25;;;;;;;4.68;3.40;;;11.60;67.80;;;;;;5017467;28;20445;-80
2023/04/22 03:48:04;;;;;;;5.38;3.75;;;11.60;67.80;;;;;;5021271;28;20052;-79
2023/04/22 03:50:37;;;;;;;4.28;3.33;;;11.70;67.80;;;;;;5037102;28;20048;-80
2023/04/22 03:53:03;;;;;;;5.18;3.80;;;11.70;67.80;;;;;;5036608;28;20124;-80
2023/04/22 03:55:29;;;;;;;4.80;3.47;;;11.60;67.70;;;;;;5003769;28;20122;-80
2023/04/22 03:57:55;;;;;;;4.65;3.53;;;11.60;67.70;;;;;;5004421;28;20025;-80
2023/04/22 04:00:21;;;;;;;5.60;3.67;;;11.70;67.80;;;;;;5020009;28;20032;-79
2023/04/22 04:02:56;;;;;;;4.82;3.70;;;11.60;67.80;;;;;;5021535;28;20036;-79
2023/04/22 04:05:25;;;;;;;4.47;3.67;;;11.60;67.80;;;;;;5037523;28;20033;-79
2023/04/22 04:07:51;;;;;;;4.82;3.70;;;11.60;67.80;;;;;;5004284;28;20477;-79
2023/04/22 04:10:17;;;;;;;4.38;3.60;;;11.60;67.80;;;;;;5036596;28;20029;-79
2023/04/22 04:12:42;;;;;;;5.07;3.88;;;11.60;67.90;;;;;;5036389;28;20029;-81
2023/04/22 04:15:08;;;;;;;4.70;3.67;;;11.60;67.90;;;;;;5019943;28;20393;-80
2023/04/22 04:17:35;;;;;;;5.10;3.78;;;11.60;67.90;;;;;;5036203;28;20078;-80
2023/04/22 04:20:02;;;;;;;6.22;4.22;;;11.60;67.90;;;;;;5019951;28;20031;-81
2023/04/22 04:22:28;;;;;;;4.75;3.75;;;11.60;67.90;;;;;;5003382;28;20130;-80
2023/04/22 04:24:58;;;;;;;5.80;4.05;;;11.60;67.90;;;;;;5035641;28;20067;-80
2023/04/22 04:27:28;;;;;;;5.38;3.95;;;11.60;67.90;;;;;;5020111;28;20025;-79
2023/04/22 04:29:54;;;;;;;5.30;3.83;;;11.50;67.90;;;;;;5004692;28;20037;-80
2023/04/22 04:32:39;;;;;;;5.00;3.95;;;11.60;68.00;;;;;;5028032;28;20044;-80
2023/04/22 04:35:08;;;;;;;5.18;4.15;;;11.50;67.90;;;;;;5003630;28;20124;-80
2023/04/22 04:37:35;;;;;;;5.30;3.90;;;11.50;67.90;;;;;;5019501;28;20025;-79
2023/04/22 04:40:06;;;;;;;5.68;4.25;;;11.60;68.00;;;;;;5005197;28;20051;-80
2023/04/22 04:42:42;;;;;;;5.07;4.03;;;11.60;68.00;;;;;;5036012;28;20039;-84
2023/04/22 04:45:15;;;;;;;4.93;3.67;;;11.50;68.00;;;;;;5004771;28;20043;-79
2023/04/22 04:47:42;;;;;;;5.55;4.28;;;11.50;68.00;;;;;;5035729;28;20033;-85
2023/04/22 04:50:19;;;;;;;5.45;4.25;;;11.50;68.00;;;;;;5035833;28;20056;-80
2023/04/22 04:52:47;;;;;;;5.75;4.60;;;11.50;68.00;;;;;;5019586;28;20033;-79
2023/04/22 04:55:15;;;;;;;6.07;4.43;;;11.50;68.00;;;;;;5003183;28;20021;-79
2023/04/22 04:57:42;;;;;;;5.43;4.38;;;11.50;68.00;;;;;;5019061;28;20052;-81
2023/04/22 05:00:10;;;;;;;5.93;4.60;;;11.50;68.00;;;;;;5035175;28;20025;-80
2023/04/22 05:02:36;;;;;;;5.95;4.70;;;11.60;68.10;;;;;;5035438;28;20091;-83
2023/04/22 05:05:02;;;;;;;6.50;4.50;;;11.50;68.00;;;;;;5053016;28;20033;-83
2023/04/22 05:07:29;;;;;;;6.18;4.63;;;11.60;68.10;;;;;;5003267;28;20116;-80
2023/04/22 05:09:56;;;;;;;6.00;4.78;;;11.50;68.00;;;;;;5019101;28;20051;-81
2023/04/22 05:12:22;;;;;;;5.50;4.10;;;11.50;68.10;;;;;;5034930;28;20041;-79
2023/04/22 05:14:47;;;;;;;5.72;4.60;;;11.50;68.10;;;;;;5002954;28;20025;-79
2023/04/22 05:17:13;;;;;;;5.78;4.43;;;11.50;68.10;;;;;;5018924;28;20025;-82
2023/04/22 05:19:39;;;;;;;5.78;4.78;;;11.50;68.10;;;;;;5002624;28;20030;-80
2023/04/22 05:22:06;;;;;;;5.78;4.47;;;11.50;68.10;;;;;;5035402;28;20033;-79
2023/04/22 05:24:32;;;;;;;5.75;4.47;;;11.50;68.80;;;;;;5002986;28;20491;-81
2023/04/22 05:26:59;;;;;;;5.82;4.40;;;11.50;68.10;;;;;;5004299;28;20527;-78
2023/04/22 05:29:26;;;;;;;6.03;4.90;;;11.50;68.20;;;;;;5039500;28;20029;-80
2023/04/22 05:31:51;;;;;;;6.05;4.68;;;11.50;68.20;;;;;;5039200;28;20079;-80
2023/04/22 05:34:17;;;;;;;7.07;5.47;;;11.50;68.20;;;;;;5039257;28;20425;-82
2023/04/22 05:36:43;;;;;;;5.75;5.03;;;11.50;68.20;;;;;;5022963;28;20461;-79
2023/04/22 05:39:09;;;;;;;5.43;4.25;;;11.50;68.10;;;;;;5039762;28;20473;-80
2023/04/22 05:41:35;;;;;;;5.65;4.68;;;11.50;68.20;;;;;;5038641;28;20076;-80
2023/04/22 05:44:02;;;;;;;5.15;3.97;;;11.50;68.20;;;;;;5022794;28;20481;-80
2023/04/22 05:46:29;;;;;;;6.43;4.80;;;11.50;68.20;;;;;;5039519;28;20037;-80
2023/04/22 05:48:55;;;;;;;5.80;4.68;;;11.60;68.30;;;;;;5022086;28;20509;-80
2023/04/22 05:51:41;;;;;;;5.60;4.55;;;11.50;68.20;;;;;;5027704;28;20045;-80
2023/04/22 05:54:08;;;;;;;5.57;4.43;;;11.50;68.20;;;;;;5023178;28;20037;-82
2023/04/22 05:56:34;;;;;;;5.72;4.43;;;11.50;68.20;;;;;;5022786;28;20032;-80
2023/04/22 05:59:00;;;;;;;5.60;4.80;;;11.60;68.30;;;;;;5038990;28;20025;-80
2023/04/22 06:01:26;;;;;;;5.72;4.53;;;11.60;68.30;;;;;;5038796;28;20080;-79
2023/04/22 06:03:58;;;;;;;5.88;4.65;;;11.60;68.30;;;;;;5038961;28;20353;-81
2023/04/22 06:06:26;;;;;;;5.82;4.50;;;11.60;68.30;;;;;;5022212;28;20032;-79
2023/04/22 06:08:52;;;;;;;6.07;4.95;;;11.60;68.30;;;;;;5022664;28;20381;-80
2023/04/22 06:11:17;;;;;;;5.55;4.45;;;11.60;68.30;;;;;;5022944;28;20035;-79
2023/04/22 06:13:43;;;;;;;5.47;4.47;;;11.50;68.20;;;;;;5006057;28;20037;-81
2023/04/22 06:16:09;;;;;;;5.63;4.57;;;11.60;68.30;;;;;;5038280;28;20033;-85
2023/04/22 06:18:35;;;;;;;5.57;4.63;;;11.60;68.90;;;;;;5005464;28;20027;-80
2023/04/22 06:21:02;;;;;;;5.60;4.43;;;11.60;68.30;;;;;;5021895;28;20128;-80
2023/04/22 06:23:28;;;;;;;6.22;4.82;;;11.60;68.30;;;;;;5022551;28;20420;-80
2023/04/22 06:25:55;;;;;;;5.43;4.35;;;11.60;68.30;;;;;;5039105;28;20440;-81
2023/04/22 06:28:26;;;;;;;5.60;4.70;;;11.60;68.30;;;;;;5022051;28;20063;-80
2023/04/22 06:30:55;;;;;;;6.07;5.10;;;11.70;68.50;;;;;;5006808;28;20478;-81
2023/04/22 06:33:20;;;;;;;5.85;4.85;;;11.70;68.30;;;;;;5038235;28;20040;-80
2023/04/22 06:35:46;;;;;;;5.95;4.70;;;11.70;68.40;;;;;;5021685;28;20040;-80
2023/04/22 06:38:12;;;;;;;5.40;4.40;;;11.70;68.40;;;;;;5036872;28;20492;-80
2023/04/22 06:40:58;;;;;;;5.75;4.32;;;11.70;68.40;;;;;;5026909;28;20052;-81
2023/04/22 06:43:28;;;;;;;5.38;4.35;;;11.70;68.40;;;;;;5038838;28;20041;-80
2023/04/22 06:46:16;;;;;;;5.55;4.60;;;11.70;68.30;;;;;;5022989;28;20374;-81
2023/04/22 06:49:01;;;;;;;5.75;4.40;;;11.70;68.30;;;;;;5055857;28;20067;-86
2023/04/22 06:51:27;;;;;;;5.65;4.57;;;11.70;68.30;;;;;;5056719;28;20481;-81
2023/04/22 06:53:53;;;;;;;6.47;4.82;;;11.80;68.40;;;;;;5022417;28;20469;-81
2023/04/22 06:56:19;;;;;;;5.47;4.32;;;11.80;68.40;;;;;;5021567;28;20509;-83
2023/04/22 06:58:44;;;;;;;6.65;5.18;;;11.80;68.40;;;;;;5022302;28;20032;-81
2023/04/22 07:01:10;;;;;;;6.03;4.75;;;11.80;68.40;;;;;;5005313;28;20033;-83
2023/04/22 07:03:38;;;;;;;6.85;5.28;;;11.80;68.50;;;;;;5022123;28;20041;-84
2023/04/22 07:06:08;;;;;;;6.75;5.20;;;11.80;68.50;;;;;;5008991;28;20048;-81
2023/04/22 07:08:34;;;;;;;6.35;5.60;;;11.80;68.50;;;;;;5040440;28;20037;-83
2023/04/22 07:11:01;;;;;;;6.45;5.28;;;11.80;68.50;;;;;;5011006;28;20049;-88
2023/04/22 07:13:45;;;;;;;6.50;5.07;;;11.90;69.20;;;;;;5047449;28;20044;-85
2023/04/22 07:16:11;;;;;;;6.05;5.05;;;11.90;68.60;;;;;;5050089;28;20120;-86
2023/04/22 07:18:38;;;;;;;7.05;5.57;;;11.90;68.60;;;;;;5026652;28;20443;-80
2023/04/22 07:21:04;;;;;;;6.38;4.97;;;11.90;68.60;;;;;;5005026;28;20033;-81
2023/04/22 07:23:30;;;;;;;6.70;4.97;;;11.90;68.70;;;;;;5037263;28;20036;-82
2023/04/22 07:25:56;;;;;;;6.63;5.47;;;12.00;68.70;;;;;;5020924;28;20037;-83
2023/04/22 07:28:22;;;;;;;6.18;5.22;;;12.00;68.80;;;;;;5020828;28;20557;-82
2023/04/22 07:30:47;;;;;;;6.75;5.65;;;12.00;68.70;;;;;;5020773;28;20067;-83
2023/04/22 07:33:13;;;;;;;6.00;4.72;;;12.00;68.80;;;;;;5003749;28;20082;-81
2023/04/22 07:35:39;;;;;;;6.97;5.70;;;12.10;68.80;;;;;;5004325;28;20033;-83
2023/04/22 07:38:05;;;;;;;6.82;5.53;;;12.00;68.80;;;;;;5004502;28;20017;-83
2023/04/22 07:40:30;;;;;;;7.30;5.38;;;12.10;68.80;;;;;;5004711;28;20334;-82
2023/04/22 07:42:56;;;;;;;7.20;5.50;;;12.10;68.80;;;;;;5020835;28;20032;-87
2023/04/22 07:45:22;;;;;;;6.45;5.15;;;12.10;68.90;;;;;;5020962;28;20396;-82
2023/04/22 07:47:48;;;;;;;7.10;5.53;;;12.20;68.90;;;;;;5036499;28;20061;-80
2023/04/22 07:50:14;;;;;;;7.00;5.78;;;12.20;68.90;;;;;;5016809;28;20128;-82
2023/04/22 07:52:40;;;;;;;6.68;5.45;;;12.30;68.90;;;;;;5000521;28;20134;-84
2023/04/22 07:55:06;;;;;;;7.55;5.75;;;12.30;68.80;;;;;;5017327;28;20061;-83
2023/04/22 07:57:37;;;;;;;7.28;5.70;;;12.30;68.80;;;;;;5016930;28;20349;-82
2023/04/22 08:00:05;;;;;;;7.03;5.55;;;12.30;68.80;;;;;;5018220;28;20119;-83
2023/04/22 08:02:37;;;;;;;6.05;5.13;;;12.40;68.80;;;;;;5033241;28;20029;-83
2023/04/22 08:05:03;;;;;;;6.72;5.20;;;12.40;68.70;;;;;;5033316;28;20037;-85
2023/04/22 08:07:29;;;;;;;6.18;5.15;;;12.40;68.70;;;;;;5016498;28;20044;-82
2023/04/22 08:09:55;;;;;;;6.85;5.10;;;12.50;68.80;;;;;;5016681;28;20029;-80
2023/04/22 08:12:21;;;;;;;7.03;5.45;;;12.50;68.70;;;;;;5017172;28;20022;-81
2023/04/22 08:14:47;;;;;;;6.00;4.95;;;12.50;68.70;;;;;;5016685;28;20398;-82
2023/04/22 08:17:12;;;;;;;7.10;5.25;;;12.60;68.70;;;;;;5000355;28;20053;-81
2023/04/22 08:19:38;;;;;;;6.93;5.40;;;12.60;68.70;;;;;;5017126;28;20037;-87
2023/04/22 08:22:04;;;;;;;6.18;5.20;;;12.70;68.60;;;;;;5000564;28;20077;-85
2023/04/22 08:24:30;;;;;;;6.25;5.10;;;12.70;68.50;;;;;;5033430;28;20452;-86
2023/04/22 08:26:56;;;;;;;6.40;5.00;;;12.80;68.50;;;;;;5017382;28;20033;-86
2023/04/22 08:29:22;;;;;;;6.50;5.22;;;12.80;69.10;;;;;;5033328;28;20025;-86
2023/04/22 08:31:48;;;;;;;6.32;5.38;;;12.80;68.40;;;;;;5017983;28;20087;-84
2023/04/22 08:34:14;;;;;;;6.57;5.32;;;12.90;68.40;;;;;;5033879;28;20038;-84
2023/04/22 08:36:40;;;;;;;5.97;4.95;;;12.90;68.30;;;;;;5033933;28;20493;-81
2023/04/22 08:39:05;;;;;;;7.30;5.47;;;13.00;68.30;;;;;;5000616;28;20112;-81
2023/04/22 08:41:34;;;;;;;6.28;4.65;;;13.10;68.20;;;;;;5000135;28;20397;-82
2023/04/22 08:44:01;;;;;;;6.80;5.45;;;13.10;68.20;;;;;;5033558;28;20122;-83
2023/04/22 08:46:27;;;;;;;6.70;5.20;;;13.20;68.20;;;;;;5032286;28;20033;-91
2023/04/22 08:48:53;;;;;;;6.80;5.30;;;13.30;68.20;;;;;;5032062;28;20080;-82
2023/04/22 08:51:20;;;;;;;6.75;5.40;;;13.30;68.10;;;;;;5016810;28;20079;-83
2023/04/22 08:53:46;;;;;;;6.43;5.07;;;13.30;68.00;;;;;;5016107;28;20043;-81
2023/04/22 08:56:12;;;;;;;6.38;4.88;;;13.40;68.10;;;;;;5015652;28;20025;-81
2023/04/22 08:58:41;;;;;;;6.10;5.05;;;13.50;68.10;;;;;;5015986;28;20033;-82
2023/04/22 09:01:08;;;;;;;6.43;4.75;;;13.50;68.10;;;;;;5031572;28;20037;-81
2023/04/22 09:03:39;;;;;;;6.53;5.32;;;13.60;68.10;;;;;;5015745;28;20044;-82
2023/04/22 09:06:06;;;;;;;6.20;4.95;;;13.70;68.20;;;;;;5032530;28;20531;-83
2023/04/22 09:08:32;;;;;;;7.20;4.57;;;13.70;68.10;;;;;;5016035;28;20068;-82
2023/04/22 09:10:58;;;;;;;7.00;5.15;;;13.80;68.10;;;;;;5018405;28;20034;-84
2023/04/22 09:13:25;;;;;;;5.70;4.45;;;13.80;68.10;;;;;;5005905;28;20033;-81
2023/04/22 09:15:51;;;;;;;6.25;4.72;;;13.90;68.10;;;;;;5034810;28;20044;-84
2023/04/22 09:18:18;;;;;;;5.97;4.40;;;13.90;68.10;;;;;;5015880;28;20026;-82
2023/04/22 09:20:46;;;;;;;6.30;4.70;;;14.10;68.20;;;;;;5033899;28;20056;-82
2023/04/22 09:23:12;;;;;;;6.22;4.75;;;14.10;68.20;;;;;;5032998;28;20190;-81
2023/04/22 09:25:39;;;;;;;6.60;4.97;;;14.20;68.20;;;;;;5033572;28;20128;-82
2023/04/22 09:28:05;;;;;;;5.72;4.47;;;14.30;68.30;;;;;;5031974;28;20045;-81
2023/04/22 09:30:35;;;;;;;5.72;4.63;;;14.30;68.30;;;;;;5015492;28;20029;-81
2023/04/22 09:33:03;;;;;;;7.53;4.68;;;14.40;68.40;;;;;;5031941;28;20109;-81
2023/04/22 09:35:36;;;;;;;5.80;4.45;;;14.50;68.40;;;;;;5015356;28;20040;-88
2023/04/22 09:38:05;;;;;;;6.20;4.53;;;14.60;68.60;;;;;;5033228;28;20030;-81
2023/04/22 09:40:31;;;;;;;6.10;4.70;;;14.60;68.60;;;;;;5031974;28;20045;-81
2023/04/22 09:43:02;;;;;;;5.47;4.28;;;14.70;68.50;;;;;;5015618;28;20041;-81
2023/04/22 09:45:33;;;;;;;6.43;4.78;;;14.80;68.60;;;;;;5016230;28;20033;-84
2023/04/22 09:48:06;;;;;;;6.43;4.68;;;14.90;68.70;;;;;;5032087;28;20033;-88
2023/04/22 09:50:32;;;;;;;5.55;4.35;;;15.00;68.70;;;;;;5016265;28;20052;-82
2023/04/22 09:53:07;;;;;;;5.53;4.32;;;15.10;68.80;;;;;;5031546;28;20033;-82
2023/04/22 09:55:41;;;;;;;5.85;4.47;;;15.20;69.00;;;;;;5033352;28;20029;-81
2023/04/22 09:58:18;;;;;;;5.10;4.05;;;15.30;69.00;;;;;;5031412;28;20033;-84
2023/04/22 10:00:49;;;;;;;6.93;4.60;;;15.30;69.00;;;;;;5031587;28;20030;-89
2023/04/22 10:03:15;;;;;;;5.60;4.38;;;15.50;69.00;;;;;;5032994;28;20029;-83
2023/04/22 10:05:43;;;;;;;5.97;4.28;;;15.50;68.90;;;;;;4998979;28;20034;-82
2023/04/22 10:08:09;;;;;;;5.70;4.47;;;15.60;68.90;;;;;;5031515;28;20061;-83
2023/04/22 10:10:36;;;;;;;6.38;4.57;;;15.70;68.90;;;;;;5015088;28;20080;-81
2023/04/22 10:13:03;;;;;;;4.97;4.30;;;15.80;69.00;;;;;;5016945;28;20491;-82
2023/04/22 10:15:34;;;;;;;5.10;3.90;;;15.90;69.00;;;;;;5018763;28;20025;-81
2023/04/22 10:18:03;;;;;;;5.35;4.05;;;16.00;69.00;;;;;;5035401;28;20134;-90
2023/04/22 10:20:32;;;;;;;5.10;3.97;;;16.10;68.80;;;;;;5034900;28;20017;-81
2023/04/22 10:22:58;;;;;;;5.20;4.07;;;16.20;68.80;;;;;;5034766;28;20073;-82
2023/04/22 10:25:25;;;;;;;5.35;4.20;;;16.30;68.70;;;;;;5018619;28;20033;-82
2023/04/22 10:28:01;;;;;;;5.28;4.38;;;16.30;68.60;;;;;;5018447;28;20052;-82
2023/04/22 10:30:29;;;;;;;5.20;3.97;;;16.40;68.70;;;;;;5035163;28;20036;-87
2023/04/22 10:32:55;;;;;;;4.97;3.92;;;16.50;68.60;;;;;;5034753;28;20028;-81
2023/04/22 10:35:28;;;;;;;6.40;4.38;;;16.60;68.50;;;;;;5034739;28;20030;-81
2023/04/22 10:37:54;;;;;;;5.65;3.83;;;16.70;68.60;;;;;;5036513;28;20515;-85
2023/04/22 10:40:21;;;;;;;5.80;4.50;;;16.80;68.50;;;;;;5034504;28;20100;-82
2023/04/22 10:42:52;;;;;;;5.10;3.88;;;16.90;68.50;;;;;;5018551;28;20482;-81
2023/04/22 10:45:22;;;;;;;5.25;3.97;;;17.00;68.60;;;;;;5034396;28;20033;-85
2023/04/22 10:47:48;;;;;;;4.93;3.97;;;17.00;68.40;;;;;;5018899;28;20055;-83
2023/04/22 10:50:21;;;;;;;5.18;3.67;;;17.10;68.30;;;;;;5018164;28;20053;-82
2023/04/22 10:52:58;;;;;;;5.32;3.88;;;17.30;68.40;;;;;;5034785;28;20029;-90
2023/04/22 10:55:45;;;;;;;5.15;4.10;;;17.30;68.10;;;;;;5018041;28;20037;-83
2023/04/22 10:58:24;;;;;;;5.35;4.30;;;17.40;68.10;;;;;;5034153;28;20447;-83
2023/04/22 11:00:58;;;;;;;5.13;3.80;;;17.50;68.10;;;;;;5017883;28;20442;-83
2023/04/22 11:03:27;;;;;;;6.70;3.67;;;17.60;68.10;;;;;;5035550;28;20124;-83
2023/04/22 11:06:16;;;;;;;4.55;3.70;;;17.70;68.20;;;;;;5035549;28;20029;-83
2023/04/22 11:08:47;;;;;;;4.38;3.47;;;17.80;68.50;;;;;;5034243;28;20539;-82
2023/04/22 11:11:13;;;;;;;5.22;4.05;;;18.00;68.50;;;;;;5035508;28;20084;-88
2023/04/22 11:13:41;;;;;;;5.10;3.90;;;18.10;68.50;;;;;;5034164;28;20033;-83
2023/04/22 11:16:07;;;;;;;4.47;3.50;;;18.20;68.40;;;;;;5035432;28;20096;-82
2023/04/22 11:18:33;;;;;;;5.60;4.03;;;18.30;68.30;;;;;;5017378;28;20024;-82
2023/04/22 11:21:07;;;;;;;5.20;3.80;;;18.40;68.40;;;;;;5033802;28;20029;-82
2023/04/22 11:23:34;;;;;;;5.07;3.75;;;18.50;68.50;;;;;;5033901;28;20037;-82
2023/04/22 11:26:03;;;;;;;5.03;3.80;;;18.50;68.30;;;;;;5033222;28;20033;-83
2023/04/22 11:28:29;;;;;;;4.88;3.72;;;18.60;68.50;;;;;;5034891;28;20060;-82
2023/04/22 11:31:06;;;;;;;4.47;3.58;;;18.70;68.50;;;;;;5017311;28;20440;-84
2023/04/22 11:33:33;;;;;;;4.30;3.38;;;18.80;68.70;;;;;;5033245;28;20073;-83
2023/04/22 11:35:59;;;;;;;5.10;3.80;;;18.90;68.70;;;;;;5033630;28;20551;-81
2023/04/22 11:38:26;;;;;;;4.72;3.90;;;18.90;68.70;;;;;;5034484;28;20407;-81
2023/04/22 11:40:54;;;;;;;5.30;4.03;;;19.00;68.80;;;;;;5034836;28;20033;-83
2023/04/22 11:43:20;;;;;;;4.68;3.65;;;19.10;69.00;;;;;;5035185;28;20061;-84
2023/04/22 11:45:45;;;;;;;4.72;3.58;;;19.10;68.90;;;;;;5016865;28;20069;-85
2023/04/22 11:48:11;;;;;;;4.97;3.75;;;19.20;68.80;;;;;;5018193;28;20462;-82
2023/04/22 11:50:43;;;;;;;5.05;3.97;;;19.20;68.70;;;;;;5004627;28;20051;-81
2023/04/22 11:53:17;;;;;;;4.40;3.47;;;19.30;68.90;;;;;;5037086;28;20489;-82
2023/04/22 11:55:45;;;;;;;4.57;3.92;;;19.40;69.00;;;;;;5037451;28;20037;-81
2023/04/22 11:58:16;;;;;;;5.10;3.75;;;19.40;68.80;;;;;;5020457;28;20136;-80
2023/04/22 12:00:50;;;;;;;4.30;3.38;;;19.50;69.10;;;;;;5037079;28;20025;-80
2023/04/22 12:03:17;;;;;;;5.15;3.55;;;19.50;69.10;;;;;;5022824;28;20143;-83
2023/04/22 12:05:48;;;;;;;4.63;3.45;;;19.60;69.20;;;;;;5038664;28;20377;-81
2023/04/22 12:08:17;;;;;;;5.32;3.75;;;19.60;69.30;;;;;;5038018;28;20025;-81
2023/04/22 12:10:45;;;;;;;4.60;3.50;;;19.60;69.20;;;;;;5038217;28;20059;-84
2023/04/22 12:13:22;;;;;;;4.45;3.53;;;19.60;69.20;;;;;;5021322;28;20056;-82
2023/04/22 12:15:52;;;;;;;4.28;3.33;;;19.70;69.40;;;;;;5055787;28;20083;-83
2023/04/22 12:18:31;;;;;;;4.32;3.42;;;19.70;69.20;;;;;;5023972;28;20039;-81
2023/04/22 12:21:06;;;;;;;4.32;3.45;;;19.70;69.30;;;;;;5023779;28;20029;-85
2023/04/22 12:23:54;;;;;;;3.97;3.10;;;19.80;69.30;;;;;;5058887;28;20061;-84
2023/04/22 12:26:23;;;;;;;4.05;2.95;;;19.70;69.20;;;;;;5037633;28;20120;-81
2023/04/22 12:28:49;;;;;;;3.90;3.22;;;19.80;69.10;;;;;;5021269;28;20032;-82
2023/04/22 12:31:16;;;;;;;3.80;3.10;;;19.80;69.10;;;;;;5036287;28;20025;-82
2023/04/22 12:33:44;;;;;;;3.75;3.15;;;19.80;69.10;;;;;;5036876;28;20036;-84
2023/04/22 12:36:10;;;;;;;3.80;3.22;;;19.80;69.00;;;;;;5019499;28;20025;-84
2023/04/22 12:38:37;;;;;;;4.40;2.97;;;19.80;69.00;;;;;;5020504;28;20021;-88
2023/04/22 12:41:04;;;;;;;4.05;3.20;;;19.80;68.90;;;;;;5003912;28;20029;-84
2023/04/22 12:43:38;;;;;;;3.45;3.05;;;19.90;68.90;;;;;;5020114;28;20040;-83
2023/04/22 12:46:05;;;;;;;3.95;3.25;;;19.90;68.80;;;;;;5022467;28;20037;-83
2023/04/22 12:48:31;;;;;;;3.83;2.97;;;19.90;68.80;;;;;;5035988;28;20057;-84
2023/04/22 12:50:57;;;;;;;4.00;3.03;;;19.90;68.80;;;;;;5019482;28;20128;-83